Saginaw Browne, MI

5:43 PM EDT on May 21, 2018 (GMT -0400)
Saginaw County-Browne

Weather History for KHYX - June, 2013

Change the Weather History Date:

Thursday, June 13, 2013

  Actual Average (KMBS) Record (KMBS)
Temperature  
Mean Temperature 70 °F -  
Max Temperature 77 °F 75 °F 90 °F (2001)
Min Temperature 62 °F 54 °F 46 °F (2006)
Cooling Degree Days 4    
Growing Degree Days 20 (Base 50)    
Moisture  
Dew Point 59 °F    
Average Humidity 75    
Maximum Humidity 100    
Minimum Humidity 41    
Precipitation  
Precipitation 0.00 in - - ()
Sea Level Pressure  
Sea Level Pressure 29.79 in    
Wind  
Wind Speed 7 mph (North)    
Max Wind Speed 14 mph    
Max Gust Speed 18 mph    
Visibility 9 miles    
Events Rain    
Averages and records for this station are not official NWS values.
T = Trace of Precipitation, MM = Missing Value Source: NWS Daily Summary

Daily Weather History Graph

Daily Weather History Graph

Search for Another Location

Airport or City:

Astronomy

Jun. 13, 2013 Rise Set
Actual Time 5:54 AM EDT 9:17 PM EDT
Civil Twilight 5:18 AM EDT 9:52 PM EDT
Nautical Twilight 4:32 AM EDT 10:39 PM EDT
Astronomical Twilight 3:34 AM EDT 11:37 PM EDT
Moon 10:36 AM EDT (6/13) No Moon Set
Length of Visible Light 16h 34m
Length of Day
15h 23m
Waxing Crescent, 21% of the Moon is Illuminated
Jun 13
Waxing Crescent
Jun 16
First Quarter
Jun 23
Full
Jun 30
Last Quarter
Jul 8
New

Hourly Weather History & Observations

Time (EDT) Temp. Dew Point Humidity Pressure Visibility Wind Dir Wind Speed Gust Speed Precip Events Conditions
12:10 AM 64.4 °F 64.4 °F 100% 29.69 in 5.0 mi East 9.2 mph 16.1 mph N/A Rain Light Rain
12:31 AM 64.4 °F 64.4 °F 100% 29.69 in 7.0 mi East 6.9 mph - N/A   Mostly Cloudy
12:51 AM 64.4 °F 64.4 °F 100% 29.68 in 7.0 mi East 6.9 mph - N/A Rain Rain
1:11 AM 64.4 °F 64.4 °F 100% 29.68 in 5.0 mi Calm Calm - N/A Rain Rain
1:31 AM 64.4 °F 64.4 °F 100% 29.67 in 7.0 mi ESE 4.6 mph - N/A Rain Light Rain
1:51 AM 64.4 °F 64.4 °F 100% 29.67 in 5.0 mi NNE 4.6 mph - N/A Rain Rain
2:11 AM 64.4 °F 64.4 °F 100% 29.68 in 5.0 mi North 5.8 mph - N/A Rain Light Rain
2:31 AM 62.6 °F 62.6 °F 100% 29.67 in 7.0 mi North 4.6 mph - N/A Rain Rain
2:51 AM 62.6 °F 62.6 °F 100% 29.67 in 7.0 mi North 4.6 mph - N/A Rain Light Rain
3:12 AM 62.6 °F 62.6 °F 100% 29.67 in 10.0 mi NNE 5.8 mph - N/A Rain Light Rain
3:32 AM 62.6 °F 62.6 °F 100% 29.67 in 10.0 mi North 8.1 mph - N/A   Drizzle
3:52 AM 62.6 °F 62.6 °F 100% 29.67 in 7.0 mi North 6.9 mph - N/A   Light Drizzle
4:12 AM 62.6 °F 62.6 °F 100% 29.67 in 7.0 mi North 8.1 mph - N/A   Light Drizzle
4:32 AM 62.6 °F 62.6 °F 100% 29.67 in 7.0 mi North 6.9 mph - N/A Rain Light Rain
4:52 AM 62.6 °F 62.6 °F 100% 29.67 in 7.0 mi North 9.2 mph - N/A   Drizzle
5:12 AM 62.6 °F 62.6 °F 100% 29.66 in 5.0 mi North 8.1 mph - N/A   Light Drizzle
5:32 AM 62.6 °F 62.6 °F 100% 29.68 in 4.0 mi North 11.5 mph 16.1 mph N/A   Overcast
5:52 AM 62.6 °F 62.6 °F 100% 29.69 in 3.0 mi North 4.6 mph - N/A   Mostly Cloudy
6:12 AM 62.6 °F 62.6 °F 100% 29.69 in 3.0 mi North 10.4 mph - N/A   Scattered Clouds
6:32 AM 62.6 °F 62.6 °F 100% 29.71 in 2.5 mi North 6.9 mph - N/A   Scattered Clouds
6:52 AM 62.6 °F 62.6 °F 100% 29.71 in 2.5 mi North 4.6 mph - N/A   Scattered Clouds
7:13 AM 62.6 °F 62.6 °F 100% 29.71 in 5.0 mi NNW 6.9 mph - N/A   Clear
7:33 AM 62.6 °F 62.6 °F 100% 29.72 in 7.0 mi NW 11.5 mph - N/A   Clear
7:53 AM 62.6 °F 62.6 °F 100% 29.72 in 10.0 mi NNW 11.5 mph - N/A   Clear
8:13 AM 62.6 °F 60.8 °F 94% 29.73 in 10.0 mi NW 10.4 mph - N/A   Clear
8:33 AM 64.4 °F 60.8 °F 88% 29.73 in 10.0 mi NW 8.1 mph - N/A   Clear
8:53 AM 66.2 °F 59.0 °F 78% 29.74 in 10.0 mi NW 10.4 mph - N/A   Clear
9:13 AM 66.2 °F 59.0 °F 78% 29.75 in 10.0 mi NNW 4.6 mph - N/A   Clear
9:33 AM 68.0 °F 57.2 °F 68% 29.75 in 10.0 mi NNW 6.9 mph - N/A   Clear
9:53 AM 68.0 °F 57.2 °F 68% 29.74 in 10.0 mi North 12.7 mph 17.3 mph N/A   Clear
10:14 AM 68.0 °F 55.4 °F 64% 29.75 in 10.0 mi North 10.4 mph 17.3 mph N/A   Clear
10:34 AM 68.0 °F 55.4 °F 64% 29.76 in 10.0 mi NNW 10.4 mph - N/A   Clear
10:54 AM 69.8 °F 55.4 °F 60% 29.76 in 10.0 mi North 9.2 mph - N/A   Clear
11:14 AM 69.8 °F 55.4 °F 60% 29.76 in 10.0 mi North 10.4 mph - N/A   Clear
11:34 AM 71.6 °F 59.0 °F 64% 29.77 in 10.0 mi North 11.5 mph 16.1 mph N/A   Clear
11:54 AM 71.6 °F 57.2 °F 60% 29.78 in 10.0 mi North 10.4 mph - N/A   Clear
12:14 PM 71.6 °F 55.4 °F 57% 29.78 in 10.0 mi North 3.5 mph - N/A   Clear
12:34 PM 71.6 °F 57.2 °F 60% 29.79 in 10.0 mi Calm Calm - N/A   Clear
12:54 PM 71.6 °F 57.2 °F 60% 29.80 in 10.0 mi NNE 12.7 mph 17.3 mph N/A   Clear
1:15 PM 73.4 °F 55.4 °F 53% 29.81 in 10.0 mi NNE 12.7 mph 18.4 mph N/A   Clear
1:35 PM 73.4 °F 57.2 °F 57% 29.81 in 10.0 mi North 10.4 mph - N/A   Clear
1:55 PM 73.4 °F 59.0 °F 61% 29.81 in 10.0 mi NNE 10.4 mph 16.1 mph N/A   Clear
2:15 PM 73.4 °F 59.0 °F 61% 29.82 in 10.0 mi NNE 9.2 mph 16.1 mph N/A   Scattered Clouds
2:35 PM 73.4 °F 57.2 °F 57% 29.82 in 10.0 mi NNE 9.2 mph 16.1 mph N/A   Mostly Cloudy
2:55 PM 75.2 °F 55.4 °F 50% 29.83 in 10.0 mi NE 10.4 mph - N/A   Mostly Cloudy
3:15 PM 77.0 °F 55.4 °F 47% 29.83 in 10.0 mi NE 10.4 mph 16.1 mph N/A   Mostly Cloudy
3:35 PM 77.0 °F 55.4 °F 47% 29.83 in 10.0 mi NE 11.5 mph - N/A   Mostly Cloudy
3:50 PM 77.0 °F 53.6 °F 44% 29.84 in 10.0 mi NE 13.8 mph 17.3 mph N/A   Mostly Cloudy
4:10 PM 77.0 °F 53.6 °F 44% 29.84 in 10.0 mi NE 11.5 mph 17.3 mph N/A   Mostly Cloudy
4:30 PM 75.2 °F 51.8 °F 44% 29.84 in 10.0 mi NE 9.2 mph - N/A   Scattered Clouds
4:51 PM 77.0 °F 51.8 °F 41% 29.84 in 10.0 mi NNE 9.2 mph - N/A   Clear
5:11 PM 75.2 °F 51.8 °F 44% 29.85 in 10.0 mi NNE 8.1 mph - N/A   Scattered Clouds
5:31 PM 73.4 °F 51.8 °F 47% 29.85 in 10.0 mi North 9.2 mph - N/A   Scattered Clouds
5:51 PM 73.4 °F 53.6 °F 50% 29.86 in 10.0 mi North 8.1 mph - N/A   Scattered Clouds
6:11 PM 71.6 °F 55.4 °F 57% 29.86 in 10.0 mi North 8.1 mph - N/A   Mostly Cloudy
6:31 PM 71.6 °F 53.6 °F 53% 29.86 in 10.0 mi North 6.9 mph - N/A   Overcast
6:51 PM 71.6 °F 53.6 °F 53% 29.87 in 10.0 mi North 5.8 mph - N/A   Scattered Clouds
7:12 PM 71.6 °F 53.6 °F 53% 29.87 in 10.0 mi North 5.8 mph - N/A   Mostly Cloudy
7:32 PM 71.6 °F 53.6 °F 53% 29.88 in 10.0 mi North 5.8 mph - N/A   Mostly Cloudy
7:52 PM 69.8 °F 55.4 °F 60% 29.89 in 10.0 mi NNE 8.1 mph - N/A   Mostly Cloudy
8:12 PM 69.8 °F 55.4 °F 60% 29.89 in 10.0 mi NNE 3.5 mph - N/A   Mostly Cloudy
8:32 PM 69.8 °F 57.2 °F 64% 29.90 in 10.0 mi NNE 4.6 mph - N/A   Mostly Cloudy
8:52 PM 68.0 °F 57.2 °F 68% 29.90 in 10.0 mi Calm Calm - N/A   Overcast
9:12 PM 68.0 °F 57.2 °F 68% 29.90 in 10.0 mi NNW 4.6 mph - N/A   Overcast
9:32 PM 68.0 °F 59.0 °F 73% 29.92 in 10.0 mi Calm Calm - N/A   Mostly Cloudy
9:52 PM 66.2 °F 59.0 °F 78% 29.92 in 10.0 mi Calm Calm - N/A   Mostly Cloudy
10:12 PM 68.0 °F 59.0 °F 73% 29.93 in 10.0 mi NNW 3.5 mph - N/A   Overcast
10:32 PM 68.0 °F 59.0 °F 73% 29.93 in 10.0 mi NNW 9.2 mph - N/A   Mostly Cloudy
10:53 PM 66.2 °F 59.0 °F 78% 29.93 in 10.0 mi North 6.9 mph - N/A   Scattered Clouds
11:13 PM 64.4 °F 59.0 °F 83% 29.94 in 10.0 mi NNW 5.8 mph - N/A   Mostly Cloudy
11:33 PM 64.4 °F 59.0 °F 83% 29.95 in 10.0 mi North 4.6 mph - N/A   Overcast
11:53 PM 64.4 °F 59.0 °F 83% 29.95 in 10.0 mi NNW 3.5 mph - N/A   Scattered Clouds